createdAt,value
2018-12-20T00:00:49.853Z,5.53
2018-12-20T00:03:18.183Z,5.50
2018-12-20T00:05:46.422Z,5.56
2018-12-20T00:08:14.907Z,5.59
2018-12-20T00:10:43.278Z,5.62
2018-12-20T00:13:11.689Z,5.54
2018-12-20T00:15:40.177Z,5.58
2018-12-20T00:18:08.628Z,5.65
2018-12-20T00:20:36.947Z,5.71
2018-12-20T00:23:05.217Z,5.66
2018-12-20T00:25:33.700Z,5.64
2018-12-20T00:28:02.263Z,5.61
2018-12-20T00:30:30.517Z,5.48
2018-12-20T00:32:58.798Z,5.65
2018-12-20T00:35:27.396Z,5.68
2018-12-20T00:37:55.862Z,5.60
2018-12-20T00:40:24.399Z,5.53
2018-12-20T00:42:52.682Z,5.51
2018-12-20T00:45:20.970Z,5.61
2018-12-20T00:47:49.678Z,5.58
2018-12-20T00:50:18.109Z,5.62
2018-12-20T00:52:46.500Z,5.71
2018-12-20T00:55:14.891Z,5.72
2018-12-20T00:57:43.285Z,5.62
2018-12-20T01:00:11.890Z,5.62
2018-12-20T01:02:40.321Z,5.52
2018-12-20T01:05:08.750Z,5.56
2018-12-20T01:07:37.084Z,5.64
2018-12-20T01:10:05.605Z,5.58
2018-12-20T01:12:34.255Z,5.59
2018-12-20T01:15:02.652Z,5.57
2018-12-20T01:17:36.482Z,5.62
2018-12-20T01:20:05.095Z,5.59
2018-12-20T01:22:33.354Z,5.58
2018-12-20T01:25:01.789Z,5.51
2018-12-20T01:27:30.085Z,5.50
2018-12-20T01:29:58.362Z,5.50
2018-12-20T01:32:26.862Z,5.46
2018-12-20T01:34:55.290Z,5.39
2018-12-20T01:37:23.783Z,5.56
2018-12-20T01:39:52.117Z,5.49
2018-12-20T01:42:20.510Z,5.50
2018-12-20T01:44:53.479Z,5.53
2018-12-20T01:47:19.186Z,5.49
2018-12-20T01:49:47.509Z,5.38
2018-12-20T01:52:15.888Z,5.45
2018-12-20T01:54:44.237Z,5.42
2018-12-20T01:57:12.662Z,5.50
2018-12-20T01:59:41.168Z,5.40
2018-12-20T02:02:09.648Z,5.34
2018-12-20T02:04:37.998Z,5.32
2018-12-20T02:07:06.401Z,5.34
2018-12-20T02:09:34.799Z,5.34
2018-12-20T02:12:03.335Z,5.29
2018-12-20T02:14:31.663Z,5.43
2018-12-20T02:17:00.056Z,5.50
2018-12-20T02:19:28.412Z,5.40
2018-12-20T02:24:50.152Z,5.46
2018-12-20T02:27:18.698Z,5.33
2018-12-20T02:29:47.166Z,5.37
2018-12-20T02:32:15.571Z,5.39
2018-12-20T02:34:43.868Z,5.39
2018-12-20T02:37:12.231Z,5.34
2018-12-20T02:39:40.588Z,5.39
2018-12-20T02:42:09.001Z,5.30
2018-12-20T02:44:37.437Z,5.33
2018-12-20T02:47:05.823Z,5.22
2018-12-20T02:49:34.219Z,5.20
2018-12-20T02:52:02.671Z,5.25
2018-12-20T02:54:30.932Z,5.31
2018-12-20T02:56:59.343Z,5.24
2018-12-20T02:59:27.772Z,5.21
2018-12-20T03:01:56.092Z,5.22
2018-12-20T03:04:24.692Z,5.10
2018-12-20T03:06:53.168Z,5.19
2018-12-20T03:09:21.451Z,5.18
2018-12-20T03:11:49.763Z,5.19
2018-12-20T03:14:18.183Z,5.12
2018-12-20T03:16:46.415Z,5.11
2018-12-20T03:19:14.669Z,5.10
2018-12-20T03:21:43.090Z,5.05
2018-12-20T03:24:11.593Z,5.11
2018-12-20T03:26:40.076Z,5.16
2018-12-20T03:29:08.600Z,5.15
2018-12-20T03:31:37.174Z,5.19
2018-12-20T03:34:05.573Z,5.14
2018-12-20T03:36:33.904Z,5.20
2018-12-20T03:39:02.198Z,5.14
2018-12-20T03:41:30.564Z,5.16
2018-12-20T03:43:58.858Z,5.16
2018-12-20T03:46:27.395Z,5.21
2018-12-20T03:48:55.797Z,5.13
2018-12-20T03:51:24.622Z,5.14
2018-12-20T03:53:53.135Z,5.14
2018-12-20T03:56:21.634Z,5.27
2018-12-20T03:58:49.859Z,5.23
2018-12-20T04:01:18.341Z,5.20
2018-12-20T04:03:46.762Z,5.09
2018-12-20T04:06:15.145Z,5.15
2018-12-20T04:08:43.501Z,5.13
2018-12-20T04:11:12.026Z,5.11
2018-12-20T04:13:40.442Z,5.15
2018-12-20T04:16:08.895Z,5.13
2018-12-20T04:18:37.331Z,5.15
2018-12-20T04:21:05.582Z,5.07
2018-12-20T04:23:33.931Z,5.05
2018-12-20T04:26:02.206Z,5.08
2018-12-20T04:28:30.458Z,5.13
2018-12-20T04:30:58.914Z,5.06
2018-12-20T04:33:27.524Z,4.96
2018-12-20T04:35:55.977Z,5.06
2018-12-20T04:38:24.491Z,5.07
2018-12-20T04:40:52.853Z,4.97
2018-12-20T04:43:28.036Z,5.08
2018-12-20T04:45:56.323Z,5.00
2018-12-20T04:48:24.799Z,4.98
2018-12-20T04:50:53.428Z,5.11
2018-12-20T04:53:21.960Z,5.08
2018-12-20T04:55:50.511Z,5.11
2018-12-20T04:58:18.897Z,5.11
2018-12-20T05:00:47.299Z,5.13
2018-12-20T05:03:15.693Z,5.17
2018-12-20T05:05:44.399Z,5.09
2018-12-20T05:08:12.862Z,5.15
2018-12-20T05:10:41.147Z,5.08
2018-12-20T05:13:09.417Z,5.18
2018-12-20T05:15:37.741Z,5.10
2018-12-20T05:18:06.040Z,5.16
2018-12-20T05:20:34.543Z,5.14
2018-12-20T05:23:03.255Z,5.11
2018-12-20T05:25:31.678Z,5.01
2018-12-20T05:28:00.307Z,5.03
2018-12-20T05:30:28.523Z,5.11
2018-12-20T05:32:56.798Z,5.16
2018-12-20T05:35:25.545Z,5.14
2018-12-20T05:37:54.012Z,5.17
2018-12-20T05:40:22.405Z,5.15
2018-12-20T05:42:50.681Z,5.12
2018-12-20T05:45:19.036Z,5.10
2018-12-20T05:47:47.331Z,5.02
2018-12-20T05:50:15.628Z,5.13
2018-12-20T05:52:44.031Z,5.13
2018-12-20T05:55:12.326Z,5.10
2018-12-20T05:57:40.574Z,5.03
2018-12-20T06:00:09.552Z,4.94
2018-12-20T06:02:37.919Z,4.97
2018-12-20T06:05:06.867Z,5.16
2018-12-20T06:07:35.189Z,5.11
2018-12-20T06:10:03.609Z,5.03
2018-12-20T06:12:32.144Z,5.15
2018-12-20T06:15:00.462Z,5.11
2018-12-20T06:17:29.041Z,5.20
2018-12-20T06:19:57.573Z,5.20
2018-12-20T06:22:25.925Z,5.11
2018-12-20T06:24:54.453Z,5.02
2018-12-20T06:27:22.786Z,5.00
2018-12-20T06:29:51.012Z,5.07
2018-12-20T06:32:19.347Z,5.13
2018-12-20T06:34:47.578Z,5.19
2018-12-20T06:37:15.817Z,5.13
2018-12-20T06:39:50.566Z,5.20
2018-12-20T06:42:18.784Z,5.17
2018-12-20T06:44:47.048Z,5.10
2018-12-20T06:47:15.294Z,5.05
2018-12-20T06:49:43.508Z,5.05
2018-12-20T06:52:11.763Z,5.03
2018-12-20T06:54:39.968Z,5.17
2018-12-20T06:57:08.176Z,5.16
2018-12-20T06:59:36.409Z,5.20
2018-12-20T07:02:05.066Z,5.15
2018-12-20T07:04:33.306Z,5.20
2018-12-20T07:07:01.580Z,5.08
2018-12-20T07:09:29.950Z,5.13
2018-12-20T07:11:58.176Z,5.13
2018-12-20T07:14:26.420Z,5.14
2018-12-20T07:16:54.678Z,5.20
2018-12-20T07:19:22.927Z,5.18
2018-12-20T07:21:51.215Z,5.07
2018-12-20T07:24:19.444Z,5.24
2018-12-20T07:26:47.687Z,5.22
2018-12-20T07:29:15.942Z,5.23
2018-12-20T07:31:56.356Z,5.29
2018-12-20T07:34:24.577Z,5.31
2018-12-20T07:36:52.798Z,5.23
2018-12-20T07:39:21.037Z,5.24
2018-12-20T07:41:49.468Z,5.15
2018-12-20T07:44:17.809Z,5.06
2018-12-20T07:46:46.269Z,5.07
2018-12-20T07:49:14.731Z,5.06
2018-12-20T07:51:43.030Z,5.03
2018-12-20T07:54:11.651Z,5.05
2018-12-20T07:56:40.127Z,5.01
2018-12-20T07:59:08.524Z,5.16
2018-12-20T08:01:36.892Z,5.09
2018-12-20T08:04:05.203Z,5.19
2018-12-20T08:06:33.578Z,5.13
2018-12-20T08:09:01.907Z,5.07
2018-12-20T08:11:30.239Z,5.19
2018-12-20T08:13:58.480Z,5.12
2018-12-20T08:16:26.771Z,5.15
2018-12-20T08:18:55.025Z,5.31
2018-12-20T08:21:23.224Z,5.34
2018-12-20T08:23:51.478Z,5.35
2018-12-20T08:26:19.819Z,5.24
2018-12-20T08:28:48.190Z,5.20
2018-12-20T08:31:16.425Z,5.26
2018-12-20T08:33:44.746Z,5.24
2018-12-20T08:36:13.011Z,5.33
2018-12-20T08:38:41.197Z,5.23
2018-12-20T08:41:09.434Z,5.27
2018-12-20T08:43:37.717Z,5.26
2018-12-20T08:46:05.993Z,5.42
2018-12-20T08:48:34.234Z,5.36
2018-12-20T08:51:02.576Z,5.41
2018-12-20T08:53:30.883Z,5.33
2018-12-20T08:55:59.080Z,5.25
2018-12-20T08:58:27.330Z,5.31
2018-12-20T09:00:55.707Z,5.46
2018-12-20T09:03:23.988Z,5.42
2018-12-20T09:05:52.334Z,5.49
2018-12-20T09:08:20.548Z,5.52
2018-12-20T09:10:48.775Z,5.50
2018-12-20T09:13:17.029Z,5.55
2018-12-20T09:15:45.354Z,5.46
2018-12-20T09:18:13.636Z,5.50
2018-12-20T09:20:41.916Z,5.55
2018-12-20T09:23:10.118Z,5.60
2018-12-20T09:25:38.372Z,5.62
2018-12-20T09:28:06.674Z,5.63
2018-12-20T09:30:34.947Z,5.54
2018-12-20T09:33:03.194Z,5.59
2018-12-20T09:35:31.530Z,5.53
2018-12-20T09:38:01.048Z,5.50
2018-12-20T09:40:29.537Z,5.55
2018-12-20T09:42:57.770Z,5.52
2018-12-20T09:45:26.045Z,5.61
2018-12-20T09:47:58.552Z,5.63
2018-12-20T09:50:26.950Z,5.64
2018-12-20T09:52:55.197Z,5.66
2018-12-20T09:55:23.442Z,5.71
2018-12-20T09:57:51.689Z,5.68
2018-12-20T10:00:19.945Z,5.70
2018-12-20T10:02:48.201Z,5.64
2018-12-20T10:05:16.796Z,5.71
2018-12-20T10:07:45.002Z,5.76
2018-12-20T10:10:13.304Z,5.73
2018-12-20T10:12:41.564Z,5.67
2018-12-20T10:15:09.842Z,5.61
2018-12-20T10:17:38.052Z,5.61
2018-12-20T10:20:08.969Z,5.65
2018-12-20T10:22:37.199Z,5.67
2018-12-20T10:25:05.684Z,5.86
2018-12-20T10:27:34.064Z,5.81
2018-12-20T10:30:02.450Z,5.78
2018-12-20T10:32:30.710Z,5.78
2018-12-20T10:34:58.944Z,5.82
2018-12-20T10:37:27.202Z,5.87
2018-12-20T10:39:55.460Z,5.99
2018-12-20T10:42:23.702Z,5.89
2018-12-20T10:44:52.052Z,5.92
2018-12-20T10:47:29.277Z,5.95
2018-12-20T10:49:56.033Z,5.99
2018-12-20T10:52:24.298Z,6.01
2018-12-20T10:54:52.714Z,5.90
2018-12-20T10:57:20.938Z,6.08
2018-12-20T10:59:49.216Z,6.10
2018-12-20T11:02:22.938Z,6.10
2018-12-20T11:04:56.543Z,6.01
2018-12-20T11:07:30.288Z,6.01
2018-12-20T11:10:03.898Z,6.03
2018-12-20T11:12:37.602Z,6.07
2018-12-20T11:15:06.951Z,6.06
2018-12-20T11:17:37.429Z,6.06
2018-12-20T11:20:05.866Z,6.06
2018-12-20T11:22:34.265Z,6.12
2018-12-20T11:25:02.498Z,6.06
2018-12-20T11:27:31.006Z,6.12
2018-12-20T11:29:59.306Z,6.08
2018-12-20T11:32:27.574Z,6.12
2018-12-20T11:34:55.783Z,6.17
2018-12-20T11:37:24.026Z,6.22
2018-12-20T11:39:59.370Z,6.16
2018-12-20T11:42:23.038Z,6.20
2018-12-20T11:44:51.284Z,6.20
2018-12-20T11:47:24.863Z,6.20
2018-12-20T11:49:53.094Z,6.26
2018-12-20T11:52:21.362Z,6.31
2018-12-20T11:54:49.642Z,6.27
2018-12-20T11:57:17.890Z,6.16
2018-12-20T11:59:46.131Z,6.24
2018-12-20T12:02:14.467Z,6.24
2018-12-20T12:04:42.727Z,6.39
2018-12-20T12:07:10.932Z,6.31
2018-12-20T12:09:39.191Z,6.33
2018-12-20T12:12:07.482Z,6.38
2018-12-20T12:14:35.778Z,6.34
2018-12-20T12:17:04.139Z,6.35
2018-12-20T12:19:32.346Z,6.26
2018-12-20T12:22:00.616Z,6.26
2018-12-20T12:24:28.952Z,6.31
2018-12-20T12:27:10.149Z,6.32
2018-12-20T12:29:38.439Z,6.43
2018-12-20T12:36:03.281Z,6.48
2018-12-20T12:38:31.595Z,6.40
2018-12-20T12:40:59.935Z,6.53
2018-12-20T12:43:28.185Z,6.47
2018-12-20T12:47:17.830Z,6.45
2018-12-20T12:49:46.155Z,6.50
2018-12-20T12:52:14.474Z,6.61
2018-12-20T12:54:43.200Z,6.66
2018-12-20T12:57:16.154Z,6.59
2018-12-20T12:59:44.369Z,6.58
2018-12-20T13:02:12.620Z,6.59
2018-12-20T13:04:40.884Z,6.72
2018-12-20T13:07:09.164Z,6.67
2018-12-20T13:09:37.389Z,6.65
2018-12-20T13:12:05.652Z,6.69
2018-12-20T13:14:34.132Z,6.75
2018-12-20T13:17:02.373Z,6.72
2018-12-20T13:19:30.594Z,6.80
2018-12-20T13:21:58.853Z,6.84
2018-12-20T13:24:27.134Z,6.89
2018-12-20T13:26:55.390Z,6.88
2018-12-20T13:29:23.654Z,6.80
2018-12-20T13:31:52.004Z,6.79
2018-12-20T13:34:20.228Z,6.97
2018-12-20T13:36:48.636Z,6.83
2018-12-20T13:42:09.847Z,6.77
2018-12-20T13:44:38.130Z,6.91
2018-12-20T13:47:06.362Z,6.93
2018-12-20T13:49:34.569Z,6.96
2018-12-20T13:52:02.922Z,7.02
2018-12-20T13:54:31.145Z,6.94
2018-12-20T13:56:59.365Z,7.03
2018-12-20T13:59:27.627Z,7.04
2018-12-20T14:01:55.888Z,6.93
2018-12-20T14:04:24.245Z,6.87
2018-12-20T14:06:52.522Z,6.87
2018-12-20T14:09:21.570Z,6.87
2018-12-20T14:11:53.222Z,6.83
2018-12-20T14:14:22.140Z,6.94
2018-12-20T14:16:51.106Z,6.90
2018-12-20T14:19:20.049Z,6.95
2018-12-20T14:21:48.974Z,6.98
2018-12-20T14:24:17.640Z,7.04
2018-12-20T14:26:46.002Z,7.00
2018-12-20T14:29:14.223Z,7.05
2018-12-20T14:31:42.509Z,6.97
2018-12-20T14:34:10.782Z,7.02
2018-12-20T14:36:39.220Z,7.05
2018-12-20T14:39:14.174Z,6.97
2018-12-20T14:41:42.401Z,7.05
2018-12-20T14:44:10.828Z,7.06
2018-12-20T14:46:39.065Z,7.01
2018-12-20T14:49:07.352Z,7.07
2018-12-20T14:54:28.763Z,7.09
2018-12-20T14:56:57.020Z,7.13
2018-12-20T14:59:25.594Z,7.21
2018-12-20T15:01:53.907Z,7.15
2018-12-20T15:04:22.205Z,7.11
2018-12-20T15:06:50.619Z,7.15
2018-12-20T15:09:18.920Z,7.21
2018-12-20T15:11:47.540Z,7.22
2018-12-20T15:14:16.163Z,7.07
2018-12-20T15:16:44.409Z,7.15
2018-12-20T15:19:12.751Z,7.16
2018-12-20T15:21:41.221Z,7.08
2018-12-20T15:24:09.930Z,7.16
2018-12-20T15:26:38.276Z,7.12
2018-12-20T15:29:06.609Z,7.07
2018-12-20T15:31:34.953Z,7.13
2018-12-20T15:34:03.223Z,7.10
2018-12-20T15:36:32.067Z,7.12
2018-12-20T15:39:00.401Z,7.17
2018-12-20T15:41:28.673Z,7.09
2018-12-20T15:43:56.938Z,7.16
2018-12-20T15:46:25.230Z,7.19
2018-12-20T15:48:57.679Z,7.28
2018-12-20T15:51:26.752Z,7.25
2018-12-20T15:53:55.256Z,7.28
2018-12-20T15:56:23.779Z,7.24
2018-12-20T15:58:52.030Z,7.22
2018-12-20T16:01:20.291Z,7.18
2018-12-20T16:03:48.666Z,7.21
2018-12-20T16:06:16.957Z,7.31
2018-12-20T16:08:45.690Z,7.30
2018-12-20T16:11:14.141Z,7.27
2018-12-20T16:13:42.422Z,7.32
2018-12-20T16:16:10.805Z,7.13
2018-12-20T16:18:39.147Z,7.16
2018-12-20T16:21:07.446Z,7.19
2018-12-20T16:23:35.724Z,7.09
2018-12-20T16:26:04.166Z,7.07
2018-12-20T16:28:32.471Z,7.06
2018-12-20T16:31:00.749Z,7.15
2018-12-20T16:33:29.156Z,7.05
2018-12-20T16:35:57.535Z,7.00
2018-12-20T16:38:25.937Z,7.04
2018-12-20T16:40:54.365Z,7.04
2018-12-20T16:43:22.651Z,7.03
2018-12-20T16:48:45.077Z,7.06
2018-12-20T16:51:14.752Z,7.03
2018-12-20T16:53:43.058Z,7.13
2018-12-20T16:56:11.520Z,7.12
2018-12-20T16:58:39.873Z,7.05
2018-12-20T17:01:08.193Z,7.07
2018-12-20T17:06:29.342Z,7.07
2018-12-20T17:11:50.706Z,7.03
2018-12-20T17:14:19.164Z,6.97
2018-12-20T17:16:54.450Z,6.99
2018-12-20T17:19:22.820Z,7.09
2018-12-20T17:24:44.736Z,6.99
2018-12-20T17:27:13.137Z,6.93
2018-12-20T17:29:42.594Z,6.95
2018-12-20T17:32:11.302Z,6.97
2018-12-20T17:34:40.110Z,6.95
2018-12-20T17:37:09.092Z,7.09
2018-12-20T17:39:38.382Z,7.01
2018-12-20T17:42:07.268Z,6.98
2018-12-20T17:44:35.603Z,6.88
2018-12-20T17:47:04.152Z,6.91
2018-12-20T17:49:32.568Z,6.91
2018-12-20T17:52:01.308Z,6.91
2018-12-20T17:54:29.791Z,6.92
2018-12-20T17:56:58.116Z,6.84
2018-12-20T17:59:26.645Z,6.79
2018-12-20T18:01:56.017Z,6.87
2018-12-20T18:04:24.294Z,6.92
2018-12-20T18:06:52.672Z,6.97
2018-12-20T18:09:20.928Z,7.01
2018-12-20T18:11:49.195Z,6.97
2018-12-20T18:14:18.563Z,7.00
2018-12-20T18:16:46.856Z,6.98
2018-12-20T18:19:15.139Z,7.05
2018-12-20T18:21:43.430Z,6.96
2018-12-20T18:24:11.699Z,7.04
2018-12-20T18:26:40.055Z,6.90
2018-12-20T18:29:08.379Z,6.88
2018-12-20T18:31:36.710Z,6.97
2018-12-20T18:34:04.996Z,6.87
2018-12-20T18:36:33.388Z,6.88
2018-12-20T18:39:01.688Z,6.98
2018-12-20T18:41:29.928Z,6.95
2018-12-20T18:43:58.255Z,6.89
2018-12-20T18:46:26.507Z,6.94
2018-12-20T18:48:54.795Z,7.00
2018-12-20T18:51:23.086Z,6.92
2018-12-20T18:53:51.507Z,6.89
2018-12-20T18:56:19.753Z,6.85
2018-12-20T18:58:48.243Z,6.96
2018-12-20T19:01:16.549Z,6.93
2018-12-20T19:03:44.872Z,6.98
2018-12-20T19:06:14.240Z,7.01
2018-12-20T19:08:42.657Z,7.12
2018-12-20T19:11:31.055Z,7.12
2018-12-20T19:13:59.338Z,7.18
2018-12-20T19:16:27.544Z,7.13
2018-12-20T19:18:55.779Z,7.22
2018-12-20T19:21:24.135Z,7.15
2018-12-20T19:23:53.385Z,7.22
2018-12-20T19:26:22.401Z,7.08
2018-12-20T19:28:50.686Z,7.01
2018-12-20T19:31:18.975Z,6.94
2018-12-20T19:33:47.285Z,7.10
2018-12-20T19:36:15.567Z,7.08
2018-12-20T19:38:44.181Z,7.06
2018-12-20T19:41:12.600Z,7.02
2018-12-20T19:43:40.982Z,7.05
2018-12-20T19:46:09.309Z,7.11
2018-12-20T19:48:37.661Z,7.00
2018-12-20T19:51:05.999Z,6.88
2018-12-20T19:53:34.376Z,6.91
2018-12-20T19:56:02.703Z,6.76
2018-12-20T19:58:31.068Z,6.89
2018-12-20T20:00:59.412Z,6.92
2018-12-20T20:03:34.063Z,6.82
2018-12-20T20:06:02.391Z,6.79
2018-12-20T20:08:30.714Z,6.75
2018-12-20T20:10:59.007Z,6.72
2018-12-20T20:16:20.496Z,6.86
2018-12-20T20:21:41.792Z,6.83
2018-12-20T20:24:10.132Z,6.78
2018-12-20T20:29:31.463Z,6.86
2018-12-20T20:31:59.842Z,6.99
2018-12-20T20:34:28.109Z,6.86
2018-12-20T20:36:56.518Z,6.98
2018-12-20T20:39:43.362Z,7.09
2018-12-20T20:42:11.610Z,7.07
2018-12-20T20:44:39.936Z,7.06
2018-12-20T20:47:08.387Z,7.06
2018-12-20T20:49:36.796Z,7.13
2018-12-20T20:52:05.129Z,7.16
2018-12-20T20:54:33.530Z,7.12
2018-12-20T20:57:01.801Z,7.12
2018-12-20T20:59:30.243Z,7.11
2018-12-20T21:01:58.571Z,7.12
2018-12-20T21:04:26.898Z,7.18
2018-12-20T21:06:55.288Z,7.17
2018-12-20T21:12:22.844Z,7.08
2018-12-20T21:14:52.370Z,7.07
2018-12-20T21:17:17.832Z,7.01
2018-12-20T21:19:46.197Z,7.05
2018-12-20T21:22:14.469Z,7.10
2018-12-20T21:24:42.868Z,7.12
2018-12-20T21:27:11.438Z,7.12
2018-12-20T21:29:39.841Z,7.05
2018-12-20T21:32:08.223Z,7.07
2018-12-20T21:34:36.749Z,7.07
2018-12-20T21:37:05.168Z,7.09
2018-12-20T21:39:33.536Z,7.11
2018-12-20T21:42:01.821Z,7.08
2018-12-20T21:44:30.135Z,6.96
2018-12-20T21:46:58.449Z,7.01
2018-12-20T21:49:26.773Z,7.10
2018-12-20T21:51:55.038Z,7.05
2018-12-20T21:54:23.307Z,7.01
2018-12-20T21:59:44.188Z,7.07
2018-12-20T22:05:05.700Z,7.12
2018-12-20T22:07:33.952Z,7.12
2018-12-20T22:10:02.255Z,7.17
2018-12-20T22:12:30.546Z,7.13
2018-12-20T22:14:58.846Z,7.12
2018-12-20T22:17:27.235Z,7.10
2018-12-20T22:19:58.683Z,7.08
2018-12-20T22:22:25.960Z,7.12
2018-12-20T22:24:54.227Z,7.09
2018-12-20T22:27:22.595Z,7.16
2018-12-20T22:29:51.098Z,7.14
2018-12-20T22:32:19.427Z,7.14
2018-12-20T22:34:47.765Z,7.23
2018-12-20T22:37:16.172Z,7.22
2018-12-20T22:39:44.467Z,7.14
2018-12-20T22:42:12.728Z,7.25
2018-12-20T22:44:40.983Z,7.28
2018-12-20T22:47:09.281Z,7.18
2018-12-20T22:49:37.618Z,7.17
2018-12-20T22:52:05.815Z,7.13
2018-12-20T22:54:34.181Z,7.18
2018-12-20T22:57:02.476Z,7.22
2018-12-20T22:59:30.780Z,7.19
2018-12-20T23:01:59.163Z,7.23
2018-12-20T23:04:27.428Z,7.18
2018-12-20T23:06:55.732Z,7.19
2018-12-20T23:09:24.086Z,7.25
2018-12-20T23:11:52.375Z,7.16
2018-12-20T23:14:20.761Z,7.15
2018-12-20T23:16:53.657Z,7.29
2018-12-20T23:19:19.817Z,7.21
2018-12-20T23:21:48.192Z,7.17
2018-12-20T23:24:16.512Z,7.26
2018-12-20T23:26:44.856Z,7.30
2018-12-20T23:29:13.159Z,7.31
2018-12-20T23:31:42.039Z,7.25
2018-12-20T23:34:10.394Z,7.27
2018-12-20T23:36:38.624Z,7.23
2018-12-20T23:39:08.886Z,7.31
2018-12-20T23:41:37.139Z,7.25
2018-12-20T23:44:05.462Z,7.22
2018-12-20T23:46:33.742Z,7.20
2018-12-20T23:49:02.019Z,7.11
2018-12-20T23:51:30.286Z,7.05
2018-12-20T23:53:58.573Z,7.16
2018-12-20T23:56:26.908Z,7.09
2018-12-20T23:58:55.137Z,7.06
